sensor_id;sensor_type;location;lat;lon;timestamp;P1;durP1;ratioP1;P2;durP2;ratioP2
75044;SDS011;63614;56.026;35.960;2022-11-04T00:01:53;39.85;;;17.63;;
75044;SDS011;63614;56.026;35.960;2022-11-04T00:04:20;40.38;;;18.98;;
75044;SDS011;63614;56.026;35.960;2022-11-04T00:06:48;43.20;;;18.52;;
75044;SDS011;63614;56.026;35.960;2022-11-04T00:09:22;42.63;;;19.48;;
75044;SDS011;63614;56.026;35.960;2022-11-04T00:11:50;37.15;;;16.95;;
75044;SDS011;63614;56.026;35.960;2022-11-04T00:14:35;37.72;;;15.88;;
75044;SDS011;63614;56.026;35.960;2022-11-04T00:17:03;41.00;;;17.92;;
75044;SDS011;63614;56.026;35.960;2022-11-04T00:19:45;43.42;;;16.20;;
75044;SDS011;63614;56.026;35.960;2022-11-04T00:22:30;37.85;;;17.00;;
75044;SDS011;63614;56.026;35.960;2022-11-04T00:25:15;40.78;;;17.48;;
75044;SDS011;63614;56.026;35.960;2022-11-04T00:30:55;49.40;;;18.73;;
75044;SDS011;63614;56.026;35.960;2022-11-04T00:33:23;42.53;;;18.02;;
75044;SDS011;63614;56.026;35.960;2022-11-04T00:35:53;40.10;;;18.88;;
75044;SDS011;63614;56.026;35.960;2022-11-04T00:38:21;38.00;;;17.48;;
75044;SDS011;63614;56.026;35.960;2022-11-04T00:40:50;42.17;;;18.00;;
75044;SDS011;63614;56.026;35.960;2022-11-04T00:43:16;50.08;;;18.17;;
75044;SDS011;63614;56.026;35.960;2022-11-04T00:45:42;43.45;;;19.08;;
75044;SDS011;63614;56.026;35.960;2022-11-04T00:48:08;46.30;;;17.77;;
75044;SDS011;63614;56.026;35.960;2022-11-04T00:50:34;44.58;;;18.80;;
75044;SDS011;63614;56.026;35.960;2022-11-04T00:53:00;39.53;;;17.45;;
75044;SDS011;63614;56.026;35.960;2022-11-04T00:55:27;43.03;;;18.60;;
75044;SDS011;63614;56.026;35.960;2022-11-04T00:57:53;38.90;;;17.58;;
75044;SDS011;63614;56.026;35.960;2022-11-04T01:00:19;48.83;;;18.15;;
75044;SDS011;63614;56.026;35.960;2022-11-04T01:02:46;47.45;;;20.33;;
75044;SDS011;63614;56.026;35.960;2022-11-04T01:05:12;47.30;;;19.33;;
75044;SDS011;63614;56.026;35.960;2022-11-04T01:07:38;46.10;;;17.77;;
75044;SDS011;63614;56.026;35.960;2022-11-04T01:10:04;51.95;;;19.35;;
75044;SDS011;63614;56.026;35.960;2022-11-04T01:12:30;53.60;;;21.25;;
75044;SDS011;63614;56.026;35.960;2022-11-04T01:14:56;46.30;;;19.63;;
75044;SDS011;63614;56.026;35.960;2022-11-04T01:17:23;53.30;;;20.02;;
75044;SDS011;63614;56.026;35.960;2022-11-04T01:19:49;45.83;;;19.60;;
75044;SDS011;63614;56.026;35.960;2022-11-04T01:22:15;53.63;;;19.30;;
75044;SDS011;63614;56.026;35.960;2022-11-04T01:24:40;56.38;;;20.63;;
75044;SDS011;63614;56.026;35.960;2022-11-04T01:27:06;51.25;;;20.85;;
75044;SDS011;63614;56.026;35.960;2022-11-04T01:29:32;47.83;;;21.02;;
75044;SDS011;63614;56.026;35.960;2022-11-04T01:31:58;52.95;;;20.92;;
75044;SDS011;63614;56.026;35.960;2022-11-04T01:34:24;43.88;;;19.10;;
75044;SDS011;63614;56.026;35.960;2022-11-04T01:36:50;52.38;;;20.90;;
75044;SDS011;63614;56.026;35.960;2022-11-04T01:39:15;58.85;;;23.33;;
75044;SDS011;63614;56.026;35.960;2022-11-04T01:41:41;51.50;;;22.05;;
75044;SDS011;63614;56.026;35.960;2022-11-04T01:52:37;48.72;;;21.00;;
75044;SDS011;63614;56.026;35.960;2022-11-04T01:55:11;53.83;;;21.20;;
75044;SDS011;63614;56.026;35.960;2022-11-04T01:57:41;49.42;;;20.63;;
75044;SDS011;63614;56.026;35.960;2022-11-04T02:00:12;59.53;;;21.40;;
75044;SDS011;63614;56.026;35.960;2022-11-04T02:03:22;62.83;;;20.48;;
75044;SDS011;63614;56.026;35.960;2022-11-04T02:05:33;54.80;;;21.13;;
75044;SDS011;63614;56.026;35.960;2022-11-04T02:08:00;57.80;;;20.48;;
75044;SDS011;63614;56.026;35.960;2022-11-04T02:10:29;58.58;;;21.38;;
75044;SDS011;63614;56.026;35.960;2022-11-04T02:12:56;53.43;;;21.37;;
75044;SDS011;63614;56.026;35.960;2022-11-04T02:18:34;53.30;;;20.48;;
75044;SDS011;63614;56.026;35.960;2022-11-04T02:21:14;60.22;;;21.50;;
75044;SDS011;63614;56.026;35.960;2022-11-04T02:32:33;49.53;;;19.13;;
75044;SDS011;63614;56.026;35.960;2022-11-04T02:43:23;54.17;;;17.83;;
75044;SDS011;63614;56.026;35.960;2022-11-04T02:45:58;45.83;;;17.80;;
75044;SDS011;63614;56.026;35.960;2022-11-04T02:48:36;53.55;;;18.95;;
75044;SDS011;63614;56.026;35.960;2022-11-04T02:51:09;49.00;;;18.88;;
75044;SDS011;63614;56.026;35.960;2022-11-04T02:53:42;40.58;;;15.63;;
75044;SDS011;63614;56.026;35.960;2022-11-04T02:56:12;37.80;;;15.75;;
75044;SDS011;63614;56.026;35.960;2022-11-04T02:58:42;39.28;;;15.82;;
75044;SDS011;63614;56.026;35.960;2022-11-04T03:01:13;41.15;;;16.95;;
75044;SDS011;63614;56.026;35.960;2022-11-04T03:03:44;45.25;;;16.45;;
75044;SDS011;63614;56.026;35.960;2022-11-04T03:06:16;41.25;;;16.50;;
75044;SDS011;63614;56.026;35.960;2022-11-04T03:08:48;45.38;;;15.77;;
75044;SDS011;63614;56.026;35.960;2022-11-04T03:11:18;40.50;;;15.52;;
75044;SDS011;63614;56.026;35.960;2022-11-04T03:16:39;34.70;;;14.27;;
75044;SDS011;63614;56.026;35.960;2022-11-04T03:22:10;43.80;;;14.93;;
75044;SDS011;63614;56.026;35.960;2022-11-04T03:24:39;37.58;;;15.32;;
75044;SDS011;63614;56.026;35.960;2022-11-04T03:27:11;39.00;;;14.68;;
75044;SDS011;63614;56.026;35.960;2022-11-04T03:35:28;35.83;;;13.25;;
75044;SDS011;63614;56.026;35.960;2022-11-04T03:37:54;40.17;;;13.90;;
75044;SDS011;63614;56.026;35.960;2022-11-04T03:40:21;36.63;;;13.98;;
75044;SDS011;63614;56.026;35.960;2022-11-04T03:42:53;37.33;;;14.02;;
75044;SDS011;63614;56.026;35.960;2022-11-04T03:45:24;41.83;;;16.00;;
75044;SDS011;63614;56.026;35.960;2022-11-04T03:47:51;34.22;;;12.43;;
75044;SDS011;63614;56.026;35.960;2022-11-04T03:50:27;31.15;;;13.43;;
75044;SDS011;63614;56.026;35.960;2022-11-04T03:52:55;31.95;;;12.63;;
75044;SDS011;63614;56.026;35.960;2022-11-04T03:55:57;29.50;;;12.07;;
75044;SDS011;63614;56.026;35.960;2022-11-04T03:58:18;30.50;;;12.32;;
75044;SDS011;63614;56.026;35.960;2022-11-04T04:00:58;26.45;;;11.27;;
75044;SDS011;63614;56.026;35.960;2022-11-04T04:03:40;36.20;;;12.27;;
75044;SDS011;63614;56.026;35.960;2022-11-04T04:06:14;26.63;;;11.38;;
75044;SDS011;63614;56.026;35.960;2022-11-04T04:16:32;34.22;;;12.15;;
75044;SDS011;63614;56.026;35.960;2022-11-04T04:19:10;30.83;;;12.43;;
75044;SDS011;63614;56.026;35.960;2022-11-04T04:21:46;33.58;;;12.27;;
75044;SDS011;63614;56.026;35.960;2022-11-04T04:24:18;37.67;;;12.48;;
75044;SDS011;63614;56.026;35.960;2022-11-04T04:27:07;34.25;;;12.02;;
75044;SDS011;63614;56.026;35.960;2022-11-04T04:29:53;29.50;;;11.23;;
75044;SDS011;63614;56.026;35.960;2022-11-04T04:32:20;33.35;;;13.30;;
75044;SDS011;63614;56.026;35.960;2022-11-04T04:34:48;30.05;;;11.43;;
75044;SDS011;63614;56.026;35.960;2022-11-04T04:37:17;28.10;;;11.73;;
75044;SDS011;63614;56.026;35.960;2022-11-04T04:39:54;31.42;;;12.07;;
75044;SDS011;63614;56.026;35.960;2022-11-04T04:42:42;32.65;;;12.38;;
75044;SDS011;63614;56.026;35.960;2022-11-04T04:48:04;26.40;;;10.90;;
75044;SDS011;63614;56.026;35.960;2022-11-04T04:50:36;30.52;;;11.73;;
75044;SDS011;63614;56.026;35.960;2022-11-04T04:53:06;26.75;;;11.55;;
75044;SDS011;63614;56.026;35.960;2022-11-04T04:55:32;27.33;;;11.35;;
75044;SDS011;63614;56.026;35.960;2022-11-04T04:57:58;25.33;;;10.50;;
75044;SDS011;63614;56.026;35.960;2022-11-04T05:00:24;21.92;;;10.40;;
75044;SDS011;63614;56.026;35.960;2022-11-04T05:02:50;23.40;;;10.07;;
75044;SDS011;63614;56.026;35.960;2022-11-04T05:05:17;26.73;;;10.85;;
75044;SDS011;63614;56.026;35.960;2022-11-04T05:07:43;23.23;;;10.97;;
75044;SDS011;63614;56.026;35.960;2022-11-04T05:10:10;30.50;;;11.18;;
75044;SDS011;63614;56.026;35.960;2022-11-04T05:12:38;30.23;;;9.70;;
75044;SDS011;63614;56.026;35.960;2022-11-04T05:15:23;26.20;;;10.88;;
75044;SDS011;63614;56.026;35.960;2022-11-04T05:17:53;27.00;;;10.63;;
75044;SDS011;63614;56.026;35.960;2022-11-04T05:20:20;30.00;;;11.80;;
75044;SDS011;63614;56.026;35.960;2022-11-04T05:22:46;32.35;;;12.18;;
75044;SDS011;63614;56.026;35.960;2022-11-04T05:25:12;30.88;;;11.40;;
75044;SDS011;63614;56.026;35.960;2022-11-04T05:27:38;34.65;;;13.60;;
75044;SDS011;63614;56.026;35.960;2022-11-04T05:30:04;33.05;;;13.48;;
75044;SDS011;63614;56.026;35.960;2022-11-04T05:32:30;41.35;;;13.43;;
75044;SDS011;63614;56.026;35.960;2022-11-04T05:34:56;27.73;;;12.50;;
75044;SDS011;63614;56.026;35.960;2022-11-04T05:37:22;35.80;;;13.60;;
75044;SDS011;63614;56.026;35.960;2022-11-04T05:39:48;28.73;;;11.43;;
75044;SDS011;63614;56.026;35.960;2022-11-04T05:42:14;28.95;;;12.45;;
75044;SDS011;63614;56.026;35.960;2022-11-04T05:44:40;27.48;;;11.73;;
75044;SDS011;63614;56.026;35.960;2022-11-04T05:47:06;29.05;;;11.55;;
75044;SDS011;63614;56.026;35.960;2022-11-04T05:49:32;25.65;;;12.40;;
75044;SDS011;63614;56.026;35.960;2022-11-04T05:51:58;25.08;;;10.75;;
75044;SDS011;63614;56.026;35.960;2022-11-04T05:54:24;32.15;;;12.05;;
75044;SDS011;63614;56.026;35.960;2022-11-04T05:56:51;29.10;;;11.13;;
75044;SDS011;63614;56.026;35.960;2022-11-04T05:59:17;21.77;;;10.68;;
75044;SDS011;63614;56.026;35.960;2022-11-04T06:01:43;22.67;;;10.80;;
75044;SDS011;63614;56.026;35.960;2022-11-04T06:04:13;26.80;;;10.32;;
75044;SDS011;63614;56.026;35.960;2022-11-04T06:06:41;20.63;;;8.85;;
75044;SDS011;63614;56.026;35.960;2022-11-04T06:09:08;26.88;;;10.65;;
75044;SDS011;63614;56.026;35.960;2022-11-04T06:11:34;23.15;;;10.00;;
75044;SDS011;63614;56.026;35.960;2022-11-04T06:14:00;22.42;;;9.65;;
75044;SDS011;63614;56.026;35.960;2022-11-04T06:16:26;20.08;;;9.25;;
75044;SDS011;63614;56.026;35.960;2022-11-04T06:18:52;16.90;;;8.18;;
75044;SDS011;63614;56.026;35.960;2022-11-04T06:21:21;21.20;;;8.70;;
75044;SDS011;63614;56.026;35.960;2022-11-04T06:23:50;21.20;;;7.60;;
75044;SDS011;63614;56.026;35.960;2022-11-04T06:26:17;19.95;;;7.88;;
75044;SDS011;63614;56.026;35.960;2022-11-04T06:28:43;17.92;;;7.80;;
75044;SDS011;63614;56.026;35.960;2022-11-04T06:31:10;15.55;;;7.68;;
75044;SDS011;63614;56.026;35.960;2022-11-04T06:33:37;20.70;;;6.57;;
75044;SDS011;63614;56.026;35.960;2022-11-04T06:36:03;15.20;;;7.05;;
75044;SDS011;63614;56.026;35.960;2022-11-04T06:38:31;14.10;;;6.75;;
75044;SDS011;63614;56.026;35.960;2022-11-04T06:40:58;13.48;;;6.70;;
75044;SDS011;63614;56.026;35.960;2022-11-04T06:43:24;11.88;;;6.18;;
75044;SDS011;63614;56.026;35.960;2022-11-04T06:45:54;12.20;;;5.88;;
75044;SDS011;63614;56.026;35.960;2022-11-04T06:48:20;10.40;;;5.80;;
75044;SDS011;63614;56.026;35.960;2022-11-04T06:50:47;13.25;;;6.30;;
75044;SDS011;63614;56.026;35.960;2022-11-04T06:53:12;12.20;;;6.30;;
75044;SDS011;63614;56.026;35.960;2022-11-04T06:55:38;11.18;;;4.80;;
75044;SDS011;63614;56.026;35.960;2022-11-04T06:58:04;9.98;;;5.43;;
75044;SDS011;63614;56.026;35.960;2022-11-04T07:00:30;9.68;;;5.47;;
75044;SDS011;63614;56.026;35.960;2022-11-04T07:02:56;7.82;;;4.93;;
75044;SDS011;63614;56.026;35.960;2022-11-04T07:05:22;10.15;;;4.95;;
75044;SDS011;63614;56.026;35.960;2022-11-04T07:07:48;7.53;;;4.38;;
75044;SDS011;63614;56.026;35.960;2022-11-04T07:10:14;6.82;;;4.50;;
75044;SDS011;63614;56.026;35.960;2022-11-04T07:12:41;9.32;;;4.82;;
75044;SDS011;63614;56.026;35.960;2022-11-04T07:15:08;9.50;;;4.70;;
75044;SDS011;63614;56.026;35.960;2022-11-04T07:17:34;7.43;;;4.03;;
75044;SDS011;63614;56.026;35.960;2022-11-04T07:20:00;7.55;;;4.20;;
75044;SDS011;63614;56.026;35.960;2022-11-04T07:22:28;10.23;;;5.78;;
75044;SDS011;63614;56.026;35.960;2022-11-04T07:24:54;8.85;;;4.63;;
75044;SDS011;63614;56.026;35.960;2022-11-04T07:27:20;7.30;;;4.80;;
75044;SDS011;63614;56.026;35.960;2022-11-04T07:29:46;8.40;;;4.38;;
75044;SDS011;63614;56.026;35.960;2022-11-04T07:32:12;11.18;;;4.63;;
75044;SDS011;63614;56.026;35.960;2022-11-04T07:34:37;11.93;;;5.63;;
75044;SDS011;63614;56.026;35.960;2022-11-04T07:37:03;9.65;;;4.65;;
75044;SDS011;63614;56.026;35.960;2022-11-04T07:39:29;8.10;;;4.80;;
75044;SDS011;63614;56.026;35.960;2022-11-04T07:41:55;9.88;;;4.53;;
75044;SDS011;63614;56.026;35.960;2022-11-04T07:44:21;7.78;;;4.68;;
75044;SDS011;63614;56.026;35.960;2022-11-04T07:46:48;8.10;;;5.38;;
75044;SDS011;63614;56.026;35.960;2022-11-04T07:49:14;11.43;;;5.57;;
75044;SDS011;63614;56.026;35.960;2022-11-04T07:51:40;10.63;;;4.90;;
75044;SDS011;63614;56.026;35.960;2022-11-04T07:54:06;9.82;;;5.25;;
75044;SDS011;63614;56.026;35.960;2022-11-04T07:56:31;9.18;;;5.18;;
75044;SDS011;63614;56.026;35.960;2022-11-04T07:58:57;8.70;;;5.20;;
75044;SDS011;63614;56.026;35.960;2022-11-04T08:01:23;11.80;;;5.70;;
75044;SDS011;63614;56.026;35.960;2022-11-04T08:03:50;9.82;;;5.72;;
75044;SDS011;63614;56.026;35.960;2022-11-04T08:06:19;9.63;;;5.45;;
75044;SDS011;63614;56.026;35.960;2022-11-04T08:08:45;9.32;;;4.88;;
75044;SDS011;63614;56.026;35.960;2022-11-04T08:11:13;14.35;;;5.40;;
75044;SDS011;63614;56.026;35.960;2022-11-04T08:13:41;10.35;;;5.05;;
75044;SDS011;63614;56.026;35.960;2022-11-04T08:16:15;8.50;;;5.22;;
75044;SDS011;63614;56.026;35.960;2022-11-04T08:18:46;14.68;;;6.78;;
75044;SDS011;63614;56.026;35.960;2022-11-04T08:21:14;11.82;;;6.70;;
75044;SDS011;63614;56.026;35.960;2022-11-04T08:23:40;11.15;;;7.00;;
75044;SDS011;63614;56.026;35.960;2022-11-04T08:26:10;11.35;;;6.55;;
75044;SDS011;63614;56.026;35.960;2022-11-04T08:28:38;11.23;;;5.95;;
75044;SDS011;63614;56.026;35.960;2022-11-04T08:31:09;12.13;;;6.80;;
75044;SDS011;63614;56.026;35.960;2022-11-04T08:33:40;9.15;;;5.63;;
75044;SDS011;63614;56.026;35.960;2022-11-04T08:36:08;9.45;;;6.00;;
75044;SDS011;63614;56.026;35.960;2022-11-04T08:38:38;12.65;;;5.93;;
75044;SDS011;63614;56.026;35.960;2022-11-04T08:41:05;10.90;;;5.85;;
75044;SDS011;63614;56.026;35.960;2022-11-04T08:43:33;8.05;;;5.13;;
75044;SDS011;63614;56.026;35.960;2022-11-04T08:46:00;10.75;;;6.00;;
75044;SDS011;63614;56.026;35.960;2022-11-04T08:48:26;9.57;;;6.32;;
75044;SDS011;63614;56.026;35.960;2022-11-04T08:50:53;9.23;;;5.63;;
75044;SDS011;63614;56.026;35.960;2022-11-04T08:53:21;9.70;;;5.68;;
75044;SDS011;63614;56.026;35.960;2022-11-04T08:55:47;15.57;;;6.03;;
75044;SDS011;63614;56.026;35.960;2022-11-04T08:58:13;9.13;;;5.38;;
75044;SDS011;63614;56.026;35.960;2022-11-04T09:00:39;11.40;;;6.65;;
75044;SDS011;63614;56.026;35.960;2022-11-04T09:03:05;9.60;;;6.18;;
75044;SDS011;63614;56.026;35.960;2022-11-04T09:05:31;16.10;;;6.47;;
75044;SDS011;63614;56.026;35.960;2022-11-04T09:07:57;11.37;;;6.07;;
75044;SDS011;63614;56.026;35.960;2022-11-04T09:10:25;12.73;;;6.55;;
75044;SDS011;63614;56.026;35.960;2022-11-04T09:12:51;12.70;;;7.35;;
75044;SDS011;63614;56.026;35.960;2022-11-04T09:15:17;14.07;;;7.07;;
75044;SDS011;63614;56.026;35.960;2022-11-04T09:17:43;11.30;;;7.00;;
75044;SDS011;63614;56.026;35.960;2022-11-04T09:20:08;10.32;;;6.30;;
75044;SDS011;63614;56.026;35.960;2022-11-04T09:22:36;7.40;;;5.13;;
75044;SDS011;63614;56.026;35.960;2022-11-04T09:25:02;9.75;;;6.28;;
75044;SDS011;63614;56.026;35.960;2022-11-04T09:27:29;13.93;;;6.45;;
75044;SDS011;63614;56.026;35.960;2022-11-04T09:29:55;12.18;;;6.82;;
75044;SDS011;63614;56.026;35.960;2022-11-04T09:32:21;11.63;;;6.40;;
75044;SDS011;63614;56.026;35.960;2022-11-04T09:34:47;10.95;;;6.55;;
75044;SDS011;63614;56.026;35.960;2022-11-04T09:37:12;12.60;;;6.95;;
75044;SDS011;63614;56.026;35.960;2022-11-04T09:39:40;14.05;;;6.95;;
75044;SDS011;63614;56.026;35.960;2022-11-04T09:44:59;13.07;;;7.53;;
75044;SDS011;63614;56.026;35.960;2022-11-04T09:47:30;15.90;;;7.80;;
75044;SDS011;63614;56.026;35.960;2022-11-04T09:49:59;18.70;;;7.68;;
75044;SDS011;63614;56.026;35.960;2022-11-04T09:55:30;17.52;;;8.25;;
75044;SDS011;63614;56.026;35.960;2022-11-04T09:58:03;14.88;;;8.00;;
75044;SDS011;63614;56.026;35.960;2022-11-04T10:00:33;14.45;;;7.85;;
75044;SDS011;63614;56.026;35.960;2022-11-04T10:08:43;20.27;;;7.82;;
75044;SDS011;63614;56.026;35.960;2022-11-04T10:28:51;16.20;;;8.60;;
75044;SDS011;63614;56.026;35.960;2022-11-04T10:31:23;16.15;;;8.48;;
75044;SDS011;63614;56.026;35.960;2022-11-04T10:33:51;15.75;;;8.00;;
75044;SDS011;63614;56.026;35.960;2022-11-04T10:36:20;16.50;;;10.60;;
75044;SDS011;63614;56.026;35.960;2022-11-04T10:38:52;17.02;;;9.68;;
75044;SDS011;63614;56.026;35.960;2022-11-04T10:41:39;15.95;;;10.07;;
75044;SDS011;63614;56.026;35.960;2022-11-04T10:52:36;18.40;;;8.52;;
75044;SDS011;63614;56.026;35.960;2022-11-04T10:55:03;15.02;;;7.68;;
75044;SDS011;63614;56.026;35.960;2022-11-04T10:57:53;10.50;;;6.55;;
75044;SDS011;63614;56.026;35.960;2022-11-04T11:00:32;11.02;;;7.03;;
75044;SDS011;63614;56.026;35.960;2022-11-04T11:03:02;11.15;;;6.78;;
75044;SDS011;63614;56.026;35.960;2022-11-04T11:05:46;20.15;;;11.75;;
75044;SDS011;63614;56.026;35.960;2022-11-04T11:08:35;21.23;;;13.68;;
75044;SDS011;63614;56.026;35.960;2022-11-04T11:11:02;15.23;;;9.88;;
75044;SDS011;63614;56.026;35.960;2022-11-04T11:13:38;10.02;;;6.50;;
75044;SDS011;63614;56.026;35.960;2022-11-04T11:16:07;11.27;;;7.30;;
75044;SDS011;63614;56.026;35.960;2022-11-04T11:18:38;8.57;;;5.95;;
75044;SDS011;63614;56.026;35.960;2022-11-04T11:23:39;14.48;;;8.23;;
75044;SDS011;63614;56.026;35.960;2022-11-04T11:26:28;11.18;;;6.60;;
75044;SDS011;63614;56.026;35.960;2022-11-04T11:28:56;10.48;;;5.78;;
75044;SDS011;63614;56.026;35.960;2022-11-04T11:31:34;10.38;;;5.78;;
75044;SDS011;63614;56.026;35.960;2022-11-04T11:34:03;8.73;;;5.07;;
75044;SDS011;63614;56.026;35.960;2022-11-04T11:36:32;9.20;;;5.60;;
75044;SDS011;63614;56.026;35.960;2022-11-04T11:41:33;12.07;;;7.35;;
75044;SDS011;63614;56.026;35.960;2022-11-04T11:44:25;10.40;;;5.90;;
75044;SDS011;63614;56.026;35.960;2022-11-04T11:47:04;8.48;;;5.72;;
75044;SDS011;63614;56.026;35.960;2022-11-04T11:49:33;11.27;;;5.78;;
75044;SDS011;63614;56.026;35.960;2022-11-04T11:55:02;9.68;;;5.53;;
75044;SDS011;63614;56.026;35.960;2022-11-04T12:00:14;11.85;;;6.03;;
75044;SDS011;63614;56.026;35.960;2022-11-04T12:02:59;9.40;;;5.75;;
75044;SDS011;63614;56.026;35.960;2022-11-04T12:11:04;10.95;;;7.13;;
75044;SDS011;63614;56.026;35.960;2022-11-04T12:13:42;12.02;;;7.50;;
75044;SDS011;63614;56.026;35.960;2022-11-04T12:24:37;11.13;;;6.63;;
75044;SDS011;63614;56.026;35.960;2022-11-04T12:30:13;13.27;;;6.85;;
75044;SDS011;63614;56.026;35.960;2022-11-04T12:41:00;9.98;;;6.20;;
75044;SDS011;63614;56.026;35.960;2022-11-04T12:46:42;10.63;;;6.50;;
75044;SDS011;63614;56.026;35.960;2022-11-04T12:49:34;12.15;;;6.68;;
75044;SDS011;63614;56.026;35.960;2022-11-04T12:59:53;14.25;;;7.63;;
75044;SDS011;63614;56.026;35.960;2022-11-04T13:12:58;14.35;;;8.13;;
75044;SDS011;63614;56.026;35.960;2022-11-04T13:15:27;10.82;;;6.15;;
75044;SDS011;63614;56.026;35.960;2022-11-04T13:18:02;11.57;;;6.55;;
75044;SDS011;63614;56.026;35.960;2022-11-04T13:20:52;10.50;;;5.63;;
75044;SDS011;63614;56.026;35.960;2022-11-04T13:23:30;11.32;;;5.88;;
75044;SDS011;63614;56.026;35.960;2022-11-04T13:26:04;12.48;;;5.55;;
75044;SDS011;63614;56.026;35.960;2022-11-04T13:28:34;9.35;;;5.68;;
75044;SDS011;63614;56.026;35.960;2022-11-04T13:34:08;14.52;;;7.07;;
75044;SDS011;63614;56.026;35.960;2022-11-04T13:40:18;14.25;;;7.97;;
75044;SDS011;63614;56.026;35.960;2022-11-04T13:45:17;14.00;;;7.57;;
75044;SDS011;63614;56.026;35.960;2022-11-04T13:47:51;13.33;;;8.17;;
75044;SDS011;63614;56.026;35.960;2022-11-04T13:50:35;15.80;;;8.90;;
75044;SDS011;63614;56.026;35.960;2022-11-04T13:53:04;16.05;;;7.95;;
75044;SDS011;63614;56.026;35.960;2022-11-04T13:55:33;13.63;;;8.25;;
75044;SDS011;63614;56.026;35.960;2022-11-04T13:58:00;14.00;;;8.30;;
75044;SDS011;63614;56.026;35.960;2022-11-04T14:00:30;11.60;;;6.78;;
75044;SDS011;63614;56.026;35.960;2022-11-04T14:06:07;11.35;;;6.85;;
75044;SDS011;63614;56.026;35.960;2022-11-04T14:08:33;13.25;;;7.65;;
75044;SDS011;63614;56.026;35.960;2022-11-04T14:11:05;12.60;;;7.10;;
75044;SDS011;63614;56.026;35.960;2022-11-04T14:13:39;11.85;;;6.93;;
75044;SDS011;63614;56.026;35.960;2022-11-04T14:16:09;12.48;;;7.75;;
75044;SDS011;63614;56.026;35.960;2022-11-04T14:18:46;13.30;;;6.85;;
75044;SDS011;63614;56.026;35.960;2022-11-04T14:21:15;15.85;;;8.32;;
75044;SDS011;63614;56.026;35.960;2022-11-04T14:31:50;13.93;;;7.65;;
75044;SDS011;63614;56.026;35.960;2022-11-04T14:34:28;16.50;;;8.85;;
75044;SDS011;63614;56.026;35.960;2022-11-04T14:36:58;13.52;;;7.03;;
75044;SDS011;63614;56.026;35.960;2022-11-04T14:39:26;15.68;;;8.40;;
75044;SDS011;63614;56.026;35.960;2022-11-04T14:49:52;17.50;;;8.75;;
75044;SDS011;63614;56.026;35.960;2022-11-04T14:57:56;16.08;;;8.50;;
75044;SDS011;63614;56.026;35.960;2022-11-04T15:00:38;17.70;;;9.07;;
75044;SDS011;63614;56.026;35.960;2022-11-04T15:03:15;16.88;;;9.00;;
75044;SDS011;63614;56.026;35.960;2022-11-04T15:05:46;20.60;;;9.00;;
75044;SDS011;63614;56.026;35.960;2022-11-04T15:08:31;15.18;;;8.38;;
75044;SDS011;63614;56.026;35.960;2022-11-04T15:11:02;22.23;;;10.25;;
75044;SDS011;63614;56.026;35.960;2022-11-04T15:13:34;17.48;;;9.82;;
75044;SDS011;63614;56.026;35.960;2022-11-04T15:16:18;19.85;;;11.45;;
75044;SDS011;63614;56.026;35.960;2022-11-04T15:18:50;18.85;;;9.40;;
75044;SDS011;63614;56.026;35.960;2022-11-04T15:21:18;19.23;;;9.55;;
75044;SDS011;63614;56.026;35.960;2022-11-04T15:23:45;17.13;;;9.15;;
75044;SDS011;63614;56.026;35.960;2022-11-04T15:28:48;20.65;;;11.68;;
75044;SDS011;63614;56.026;35.960;2022-11-04T15:31:17;30.73;;;15.85;;
75044;SDS011;63614;56.026;35.960;2022-11-04T15:33:58;27.83;;;16.05;;
75044;SDS011;63614;56.026;35.960;2022-11-04T15:36:28;21.83;;;10.45;;
75044;SDS011;63614;56.026;35.960;2022-11-04T15:41:28;23.98;;;12.65;;
75044;SDS011;63614;56.026;35.960;2022-11-04T15:44:18;21.20;;;11.40;;
75044;SDS011;63614;56.026;35.960;2022-11-04T15:46:48;23.63;;;11.13;;
75044;SDS011;63614;56.026;35.960;2022-11-04T15:49:19;31.65;;;12.02;;
75044;SDS011;63614;56.026;35.960;2022-11-04T15:52:00;23.55;;;12.43;;
75044;SDS011;63614;56.026;35.960;2022-11-04T15:54:40;22.88;;;11.88;;
75044;SDS011;63614;56.026;35.960;2022-11-04T16:02:44;23.30;;;12.55;;
75044;SDS011;63614;56.026;35.960;2022-11-04T16:07:48;26.40;;;11.82;;
75044;SDS011;63614;56.026;35.960;2022-11-04T16:13:33;19.95;;;11.15;;
75044;SDS011;63614;56.026;35.960;2022-11-04T16:15:41;21.27;;;11.88;;
75044;SDS011;63614;56.026;35.960;2022-11-04T16:21:25;20.02;;;10.65;;
75044;SDS011;63614;56.026;35.960;2022-11-04T16:24:37;21.02;;;11.95;;
75044;SDS011;63614;56.026;35.960;2022-11-04T16:26:50;20.02;;;10.00;;
75044;SDS011;63614;56.026;35.960;2022-11-04T16:29:41;20.48;;;10.18;;
75044;SDS011;63614;56.026;35.960;2022-11-04T16:32:07;17.80;;;9.93;;
75044;SDS011;63614;56.026;35.960;2022-11-04T16:34:45;24.45;;;10.45;;
75044;SDS011;63614;56.026;35.960;2022-11-04T16:37:13;20.20;;;10.05;;
75044;SDS011;63614;56.026;35.960;2022-11-04T16:39:38;21.35;;;9.68;;
75044;SDS011;63614;56.026;35.960;2022-11-04T16:42:05;22.42;;;10.25;;
75044;SDS011;63614;56.026;35.960;2022-11-04T16:44:31;21.27;;;10.43;;
75044;SDS011;63614;56.026;35.960;2022-11-04T16:46:57;19.98;;;9.77;;
75044;SDS011;63614;56.026;35.960;2022-11-04T16:49:24;19.13;;;9.68;;
75044;SDS011;63614;56.026;35.960;2022-11-04T16:51:54;20.75;;;9.88;;
75044;SDS011;63614;56.026;35.960;2022-11-04T16:54:25;22.38;;;9.93;;
75044;SDS011;63614;56.026;35.960;2022-11-04T16:56:52;18.35;;;10.20;;
75044;SDS011;63614;56.026;35.960;2022-11-04T16:59:19;19.88;;;10.20;;
75044;SDS011;63614;56.026;35.960;2022-11-04T17:01:45;19.05;;;10.60;;
75044;SDS011;63614;56.026;35.960;2022-11-04T17:04:10;18.63;;;10.15;;
75044;SDS011;63614;56.026;35.960;2022-11-04T17:06:36;14.98;;;8.23;;
75044;SDS011;63614;56.026;35.960;2022-11-04T17:09:03;16.88;;;8.57;;
75044;SDS011;63614;56.026;35.960;2022-11-04T17:11:42;21.92;;;9.60;;
75044;SDS011;63614;56.026;35.960;2022-11-04T17:14:08;17.38;;;8.68;;
75044;SDS011;63614;56.026;35.960;2022-11-04T17:16:34;17.42;;;9.25;;
75044;SDS011;63614;56.026;35.960;2022-11-04T17:19:00;16.75;;;10.13;;
75044;SDS011;63614;56.026;35.960;2022-11-04T17:21:26;21.20;;;11.30;;
75044;SDS011;63614;56.026;35.960;2022-11-04T17:23:52;20.60;;;11.37;;
75044;SDS011;63614;56.026;35.960;2022-11-04T17:28:46;23.00;;;11.93;;
75044;SDS011;63614;56.026;35.960;2022-11-04T17:31:14;20.38;;;11.27;;
75044;SDS011;63614;56.026;35.960;2022-11-04T17:33:42;17.27;;;9.68;;
75044;SDS011;63614;56.026;35.960;2022-11-04T17:36:10;21.48;;;11.75;;
75044;SDS011;63614;56.026;35.960;2022-11-04T17:38:41;15.43;;;7.82;;
75044;SDS011;63614;56.026;35.960;2022-11-04T17:41:07;16.30;;;8.73;;
75044;SDS011;63614;56.026;35.960;2022-11-04T17:43:51;17.33;;;8.65;;
75044;SDS011;63614;56.026;35.960;2022-11-04T17:46:27;18.02;;;8.85;;
75044;SDS011;63614;56.026;35.960;2022-11-04T17:49:00;15.15;;;8.40;;
75044;SDS011;63614;56.026;35.960;2022-11-04T17:51:27;15.55;;;8.38;;
75044;SDS011;63614;56.026;35.960;2022-11-04T17:53:54;15.75;;;7.88;;
75044;SDS011;63614;56.026;35.960;2022-11-04T17:56:20;14.27;;;8.70;;
75044;SDS011;63614;56.026;35.960;2022-11-04T17:58:48;12.52;;;7.55;;